Time,TemperatureF,DewpointF,PressureIn,WindDirection,WindDirectionDegrees,WindSpeedMPH,WindSpeedGustMPH,Humidity,HourlyPrecipIn,Conditions,Clouds,dailyrainin,SoftwareType,DateUTC
2013-03-18 00:04:00,28.8,19.2,28.55,SE,139,16.0,18.3,67,0.00,,,-99.99,FreeWX-Wi 1.01,2013-03-18 05:04:00,
2013-03-18 00:09:00,28.9,18.3,28.55,SE,139,16.0,22.8,64,0.00,,,-99.99,FreeWX-Wi 1.01,2013-03-18 05:09:00,
2013-03-18 00:14:00,28.9,19.0,28.55,SE,141,16.0,23.3,66,0.00,,,-99.99,FreeWX-Wi 1.01,2013-03-18 05:14:00,
2013-03-18 00:19:00,29.1,18.5,28.55,SE,142,15.0,19.7,64,0.00,,,-99.99,FreeWX-Wi 1.01,2013-03-18 05:19:00,
2013-03-18 00:24:00,29.1,18.9,28.55,SE,142,15.0,25.1,65,0.00,,,-99.99,FreeWX-Wi 1.01,2013-03-18 05:24:00,
2013-03-18 00:29:00,29.1,18.5,28.55,SE,143,16.0,21.5,64,0.00,,,-99.99,FreeWX-Wi 1.01,2013-03-18 05:29:00,
2013-03-18 00:34:00,29.1,18.9,28.55,SE,144,16.0,19.7,65,0.00,,,-99.99,FreeWX-Wi 1.01,2013-03-18 05:34:00,
2013-03-18 00:40:00,29.3,19.0,28.55,SE,145,16.0,22.4,65,0.00,,,-99.99,FreeWX-Wi 1.01,2013-03-18 05:40:00,
2013-03-18 00:45:00,29.3,19.0,28.55,SE,145,16.0,21.9,65,0.00,,,-99.99,FreeWX-Wi 1.01,2013-03-18 05:45:00,
2013-03-18 00:50:00,29.3,19.4,28.52,SE,144,16.0,22.4,66,0.00,,,-99.99,FreeWX-Wi 1.01,2013-03-18 05:50:00,
2013-03-18 00:55:00,29.3,19.4,28.52,SE,144,16.0,19.7,66,0.00,,,-99.99,FreeWX-Wi 1.01,2013-03-18 05:55:00,
2013-03-18 01:00:00,29.3,19.4,28.52,SE,143,16.0,20.6,66,0.00,,,-99.99,FreeWX-Wi 1.01,2013-03-18 06:00:00,
2013-03-18 01:05:00,29.5,19.9,28.52,SE,143,16.0,20.1,67,0.00,,,-99.99,FreeWX-Wi 1.01,2013-03-18 06:05:00,
2013-03-18 01:10:00,29.5,19.9,28.52,SE,143,15.0,20.1,67,0.00,,,-99.99,FreeWX-Wi 1.01,2013-03-18 06:10:00,
2013-03-18 01:15:00,29.5,20.3,28.52,SE,144,15.0,18.3,68,0.00,,,-99.99,FreeWX-Wi 1.01,2013-03-18 06:15:00,
2013-03-18 01:20:00,29.5,20.3,28.52,SE,144,15.0,18.8,68,0.00,,,-99.99,FreeWX-Wi 1.01,2013-03-18 06:20:00,
2013-03-18 01:25:00,29.5,20.7,28.52,SE,144,15.0,17.0,69,0.00,,,-99.99,FreeWX-Wi 1.01,2013-03-18 06:25:00,
2013-03-18 01:30:00,29.3,21.0,28.52,SE,145,14.0,16.8,71,0.00,,,-99.99,FreeWX-Wi 1.01,2013-03-18 06:30:00,
2013-03-18 01:36:00,29.3,21.4,28.52,SE,145,14.0,18.3,72,0.00,,,-99.99,FreeWX-Wi 1.01,2013-03-18 06:36:00,
2013-03-18 01:41:00,29.1,21.6,28.52,SE,144,14.0,15.4,73,0.00,,,-99.99,FreeWX-Wi 1.01,2013-03-18 06:41:00,
2013-03-18 01:46:00,29.1,21.6,28.52,SE,144,14.0,20.1,73,0.00,,,-99.99,FreeWX-Wi 1.01,2013-03-18 06:46:00,
2013-03-18 01:51:00,29.1,21.9,28.50,SE,143,14.0,23.3,74,0.00,,,-99.99,FreeWX-Wi 1.01,2013-03-18 06:51:00,
2013-03-18 02:01:00,29.1,22.3,28.47,SE,141,15.0,19.7,75,0.00,,,-99.99,FreeWX-Wi 1.01,2013-03-18 07:01:00,
2013-03-18 02:12:00,28.9,22.6,28.47,SE,138,16.0,19.2,77,0.00,,,-99.99,FreeWX-Wi 1.01,2013-03-18 07:12:00,
2013-03-18 02:17:00,28.9,22.3,28.47,SE,138,16.0,22.8,76,0.00,,,-99.99,FreeWX-Wi 1.01,2013-03-18 07:17:00,
2013-03-18 02:22:00,28.9,22.3,28.47,SE,138,16.0,18.8,76,0.00,,,-99.99,FreeWX-Wi 1.01,2013-03-18 07:22:00,
2013-03-18 02:27:00,28.9,22.1,28.47,SE,138,16.0,19.2,75,0.00,,,-99.99,FreeWX-Wi 1.01,2013-03-18 07:27:00,
2013-03-18 02:33:00,29.1,21.9,28.47,SE,138,16.0,20.6,74,0.00,,,-99.99,FreeWX-Wi 1.01,2013-03-18 07:33:00,
2013-03-18 02:38:00,29.1,21.9,28.47,SE,138,16.0,24.2,74,0.00,,,-99.99,FreeWX-Wi 1.01,2013-03-18 07:38:00,
2013-03-18 02:43:00,28.9,21.7,28.47,SE,139,16.0,22.8,74,0.00,,,-99.99,FreeWX-Wi 1.01,2013-03-18 07:43:00,
2013-03-18 02:48:00,29.1,21.6,28.47,SE,139,16.0,22.4,73,0.00,,,-99.99,FreeWX-Wi 1.01,2013-03-18 07:48:00,
2013-03-18 02:53:00,29.1,21.6,28.47,SE,139,16.0,17.4,73,0.00,,,-99.99,FreeWX-Wi 1.01,2013-03-18 07:53:00,
2013-03-18 02:58:00,28.9,21.7,28.47,SE,139,16.0,20.6,74,0.00,,,-99.99,FreeWX-Wi 1.01,2013-03-18 07:58:00,
2013-03-18 03:03:00,28.9,22.1,28.47,SE,139,15.0,19.7,75,0.00,,,-99.99,FreeWX-Wi 1.01,2013-03-18 08:03:00,
2013-03-18 03:08:00,28.9,22.3,28.47,SE,139,15.0,20.1,76,0.00,,,-99.99,FreeWX-Wi 1.01,2013-03-18 08:08:00,
2013-03-18 03:13:00,28.6,21.9,28.47,SE,138,15.0,19.7,76,0.00,,,-99.99,FreeWX-Wi 1.01,2013-03-18 08:13:00,
2013-03-18 03:19:00,28.6,21.9,28.44,SE,136,15.0,18.8,76,0.00,,,-99.99,FreeWX-Wi 1.01,2013-03-18 08:19:00,
2013-03-18 03:24:00,28.4,22.1,28.44,SE,136,15.0,20.6,77,0.00,,,-99.99,FreeWX-Wi 1.01,2013-03-18 08:24:00,
2013-03-18 03:29:00,28.4,22.1,28.44,SE,135,16.0,24.6,77,0.00,,,-99.99,FreeWX-Wi 1.01,2013-03-18 08:29:00,
2013-03-18 03:34:00,28.4,22.1,28.41,SE,135,16.0,21.5,77,0.00,,,-99.99,FreeWX-Wi 1.01,2013-03-18 08:34:00,
2013-03-18 03:39:00,28.2,21.9,28.41,SE,136,17.0,22.4,77,0.00,,,-99.99,FreeWX-Wi 1.01,2013-03-18 08:39:00,
2013-03-18 03:44:00,28.2,22.3,28.41,SE,135,17.0,21.5,78,0.00,,,-99.99,FreeWX-Wi 1.01,2013-03-18 08:44:00,
2013-03-18 03:49:00,28.2,22.3,28.41,SE,136,17.0,18.3,78,0.00,,,-99.99,FreeWX-Wi 1.01,2013-03-18 08:49:00,
2013-03-18 03:54:00,28.4,22.5,28.41,SE,136,16.0,17.9,78,0.00,,,-99.99,FreeWX-Wi 1.01,2013-03-18 08:54:00,
2013-03-18 03:59:00,28.4,22.5,28.41,SE,137,16.0,19.7,78,0.00,,,-99.99,FreeWX-Wi 1.01,2013-03-18 08:59:00,
2013-03-18 04:04:00,28.4,22.5,28.41,SE,138,15.0,18.8,78,0.00,,,-99.99,FreeWX-Wi 1.01,2013-03-18 09:04:00,
2013-03-18 04:09:00,28.4,22.5,28.41,SE,138,15.0,19.2,78,0.00,,,-99.99,FreeWX-Wi 1.01,2013-03-18 09:09:00,
2013-03-18 04:14:00,28.6,22.3,28.41,SE,140,14.0,18.3,77,0.00,,,-99.99,FreeWX-Wi 1.01,2013-03-18 09:14:00,
2013-03-18 04:20:00,28.6,22.3,28.41,SE,142,14.0,19.2,77,0.00,,,-99.99,FreeWX-Wi 1.01,2013-03-18 09:20:00,
2013-03-18 04:25:00,28.6,22.3,28.41,SE,143,14.0,18.3,77,0.00,,,-99.99,FreeWX-Wi 1.01,2013-03-18 09:25:00,
2013-03-18 04:30:00,28.6,22.3,28.41,SE,145,14.0,17.9,77,0.00,,,-99.99,FreeWX-Wi 1.01,2013-03-18 09:30:00,
2013-03-18 04:35:00,28.8,22.5,28.41,SE,146,14.0,17.4,77,0.00,,,-99.99,FreeWX-Wi 1.01,2013-03-18 09:35:00,
2013-03-18 04:40:00,28.8,22.8,28.41,SSE,147,13.0,17.9,78,0.00,,,-99.99,FreeWX-Wi 1.01,2013-03-18 09:40:00,
2013-03-18 04:45:00,28.8,22.8,28.41,SSE,147,14.0,18.8,78,0.00,,,-99.99,FreeWX-Wi 1.01,2013-03-18 09:45:00,
2013-03-18 04:50:00,28.8,22.8,28.38,SSE,147,14.0,18.3,78,0.00,,,-99.99,FreeWX-Wi 1.01,2013-03-18 09:50:00,
2013-03-18 04:55:00,28.8,22.8,28.38,SE,146,14.0,19.7,78,0.00,,,-99.99,FreeWX-Wi 1.01,2013-03-18 09:55:00,
2013-03-18 05:00:00,28.8,22.8,28.38,SSE,147,13.0,15.9,78,0.00,,,-99.99,FreeWX-Wi 1.01,2013-03-18 10:00:00,
2013-03-18 05:05:00,28.8,23.0,28.41,SSE,148,13.0,15.0,79,0.00,,,-99.99,FreeWX-Wi 1.01,2013-03-18 10:05:00,
2013-03-18 05:10:00,28.8,23.4,28.41,SSE,150,13.0,15.4,80,0.00,,,-99.99,FreeWX-Wi 1.01,2013-03-18 10:10:00,
2013-03-18 05:15:00,28.8,23.7,28.41,SSE,152,12.0,15.4,81,0.00,,,-99.99,FreeWX-Wi 1.01,2013-03-18 10:15:00,
2013-03-18 05:20:00,28.8,24.3,28.41,SSE,156,12.0,16.8,83,0.00,,,-99.99,FreeWX-Wi 1.01,2013-03-18 10:20:00,
2013-03-18 05:25:00,28.8,24.6,28.41,SSE,159,11.0,15.4,84,0.00,,,-99.99,FreeWX-Wi 1.01,2013-03-18 10:25:00,
2013-03-18 05:31:00,28.6,24.6,28.41,SSE,161,11.0,15.0,85,0.00,,,-99.99,FreeWX-Wi 1.01,2013-03-18 10:31:00,
2013-03-18 05:36:00,28.6,25.0,28.41,SSE,164,11.0,13.2,86,0.00,,,-99.99,FreeWX-Wi 1.01,2013-03-18 10:36:00,
2013-03-18 05:41:00,28.6,25.5,28.41,SSE,165,11.0,13.6,88,0.00,,,-99.99,FreeWX-Wi 1.01,2013-03-18 10:41:00,
2013-03-18 05:46:00,28.6,25.7,28.41,SSE,167,11.0,12.8,89,0.00,,,-99.99,FreeWX-Wi 1.01,2013-03-18 10:46:00,
2013-03-18 05:51:00,28.6,26.1,28.41,SSE,168,11.0,13.6,90,0.00,,,-99.99,FreeWX-Wi 1.01,2013-03-18 10:51:00,
2013-03-18 06:01:00,28.6,26.6,28.41,South,169,10.0,13.6,92,0.00,,,-99.99,FreeWX-Wi 1.01,2013-03-18 11:01:00,
2013-03-18 06:06:00,28.6,26.8,28.41,South,169,10.0,16.3,93,0.00,,,-99.99,FreeWX-Wi 1.01,2013-03-18 11:06:00,
2013-03-18 06:11:00,28.6,27.1,28.41,South,170,11.0,15.0,94,0.00,,,-99.99,FreeWX-Wi 1.01,2013-03-18 11:11:00,
2013-03-18 06:16:00,28.6,27.1,28.41,South,171,11.0,13.6,94,0.00,,,-99.99,FreeWX-Wi 1.01,2013-03-18 11:16:00,
2013-03-18 06:22:00,28.6,27.1,28.41,South,170,11.0,12.8,94,0.00,,,-99.99,FreeWX-Wi 1.01,2013-03-18 11:22:00,
2013-03-18 06:27:00,28.6,27.3,28.41,South,169,11.0,12.8,95,0.00,,,-99.99,FreeWX-Wi 1.01,2013-03-18 11:27:00,
2013-03-18 06:32:00,28.6,27.3,28.41,South,169,11.0,13.6,95,0.00,,,-99.99,FreeWX-Wi 1.01,2013-03-18 11:32:00,
2013-03-18 06:37:00,28.6,27.3,28.41,SSE,167,11.0,13.2,95,0.00,,,-99.99,FreeWX-Wi 1.01,2013-03-18 11:37:00,
2013-03-18 06:42:00,28.6,27.5,28.41,SSE,166,10.0,13.6,96,0.00,,,-99.99,FreeWX-Wi 1.01,2013-03-18 11:42:00,
2013-03-18 06:47:00,28.6,27.5,28.41,SSE,166,11.0,15.4,96,0.00,,,-99.99,FreeWX-Wi 1.01,2013-03-18 11:47:00,
2013-03-18 06:52:00,28.6,27.5,28.41,SSE,166,11.0,14.1,96,0.00,,,-99.99,FreeWX-Wi 1.01,2013-03-18 11:52:00,
2013-03-18 06:57:00,28.6,27.5,28.41,SSE,165,11.0,13.2,96,0.00,,,-99.99,FreeWX-Wi 1.01,2013-03-18 11:57:00,
2013-03-18 07:02:00,28.6,27.5,28.38,SSE,165,11.0,13.2,96,0.00,,,-99.99,FreeWX-Wi 1.01,2013-03-18 12:02:00,
2013-03-18 07:08:00,28.8,27.7,28.38,SSE,164,11.0,13.2,96,0.00,,,-99.99,FreeWX-Wi 1.01,2013-03-18 12:08:00,
2013-03-18 07:13:00,28.8,27.7,28.38,SSE,164,11.0,15.0,96,0.00,,,-99.99,FreeWX-Wi 1.01,2013-03-18 12:13:00,
2013-03-18 07:18:00,28.8,27.7,28.38,SSE,164,11.0,15.0,96,0.00,,,-99.99,FreeWX-Wi 1.01,2013-03-18 12:18:00,
2013-03-18 07:23:00,28.8,27.7,28.38,SSE,164,11.0,14.1,96,0.00,,,-99.99,FreeWX-Wi 1.01,2013-03-18 12:23:00,
2013-03-18 07:28:00,28.9,27.9,28.38,SSE,164,11.0,15.0,96,0.00,,,-99.99,FreeWX-Wi 1.01,2013-03-18 12:28:00,
2013-03-18 07:33:00,28.9,27.9,28.38,SSE,164,11.0,15.4,96,0.00,,,-99.99,FreeWX-Wi 1.01,2013-03-18 12:33:00,
2013-03-18 07:38:00,28.9,27.9,28.38,SSE,165,12.0,15.9,96,0.00,,,-99.99,FreeWX-Wi 1.01,2013-03-18 12:38:00,
2013-03-18 07:43:00,29.1,28.0,28.38,SSE,165,11.0,12.8,96,0.00,,,-99.99,FreeWX-Wi 1.01,2013-03-18 12:43:00,
2013-03-18 07:48:00,29.1,27.9,28.38,SSE,165,12.0,14.1,95,0.00,,,-99.99,FreeWX-Wi 1.01,2013-03-18 12:48:00,
2013-03-18 07:53:00,29.3,28.0,28.38,SSE,167,11.0,13.2,95,0.00,,,-99.99,FreeWX-Wi 1.01,2013-03-18 12:53:00,
2013-03-18 07:58:00,29.3,27.9,28.38,SSE,167,11.0,15.0,94,0.00,,,-99.99,FreeWX-Wi 1.01,2013-03-18 12:58:00,
2013-03-18 08:03:00,29.3,27.9,28.38,SSE,168,11.0,14.1,94,0.00,,,-99.99,FreeWX-Wi 1.01,2013-03-18 13:03:00,
2013-03-18 08:09:00,29.3,27.9,28.38,South,169,11.0,13.6,94,0.00,,,-99.99,FreeWX-Wi 1.01,2013-03-18 13:09:00,
2013-03-18 08:14:00,29.5,27.7,28.38,South,170,11.0,15.4,93,0.00,,,-99.99,FreeWX-Wi 1.01,2013-03-18 13:14:00,
2013-03-18 08:19:00,29.5,27.7,28.38,South,171,11.0,14.1,93,0.00,,,-99.99,FreeWX-Wi 1.01,2013-03-18 13:19:00,
2013-03-18 08:24:00,29.5,28.0,28.38,South,171,11.0,15.4,94,0.00,,,-99.99,FreeWX-Wi 1.01,2013-03-18 13:24:00,
2013-03-18 08:29:00,29.5,28.0,28.38,South,172,11.0,13.2,94,0.00,,,-99.99,FreeWX-Wi 1.01,2013-03-18 13:29:00,
2013-03-18 08:34:00,29.5,28.0,28.35,South,171,11.0,15.0,94,0.00,,,-99.99,FreeWX-Wi 1.01,2013-03-18 13:34:00,
2013-03-18 08:39:00,29.7,28.2,28.35,South,171,11.0,15.0,94,0.00,,,-99.99,FreeWX-Wi 1.01,2013-03-18 13:39:00,
2013-03-18 08:44:00,29.8,28.4,28.35,South,172,11.0,13.2,94,0.00,,,-99.99,FreeWX-Wi 1.01,2013-03-18 13:44:00,
2013-03-18 08:49:00,29.8,28.4,28.35,South,173,11.0,13.2,94,0.00,,,-99.99,FreeWX-Wi 1.01,2013-03-18 13:49:00,
2013-03-18 08:54:00,30.0,28.6,28.35,South,175,11.0,15.0,94,0.00,,,-99.99,FreeWX-Wi 1.01,2013-03-18 13:54:00,
2013-03-18 09:00:00,30.0,28.2,28.35,South,177,11.0,13.2,93,0.00,,,-99.99,FreeWX-Wi 1.01,2013-03-18 14:00:00,
2013-03-18 09:05:00,30.2,28.2,28.38,South,180,11.0,15.0,92,0.00,,,-99.99,FreeWX-Wi 1.01,2013-03-18 14:05:00,
2013-03-18 09:10:00,30.2,27.9,28.38,South,183,11.0,13.2,91,0.00,,,-99.99,FreeWX-Wi 1.01,2013-03-18 14:10:00,
2013-03-18 09:15:00,30.2,27.7,28.38,South,184,11.0,13.2,90,0.00,,,-99.99,FreeWX-Wi 1.01,2013-03-18 14:15:00,
2013-03-18 09:20:00,30.4,27.9,28.35,South,185,10.0,12.8,90,0.00,,,-99.99,FreeWX-Wi 1.01,2013-03-18 14:20:00,
2013-03-18 09:25:00,30.4,27.5,28.35,South,187,10.0,12.8,89,0.00,,,-99.99,FreeWX-Wi 1.01,2013-03-18 14:25:00,
2013-03-18 09:30:00,30.4,27.5,28.35,South,188,10.0,11.9,89,0.00,,,-99.99,FreeWX-Wi 1.01,2013-03-18 14:30:00,
2013-03-18 09:35:00,30.6,27.7,28.35,South,191,10.0,11.0,89,0.00,,,-99.99,FreeWX-Wi 1.01,2013-03-18 14:35:00,
2013-03-18 09:40:00,30.6,27.7,28.35,South,191,10.0,12.8,89,0.00,,,-99.99,FreeWX-Wi 1.01,2013-03-18 14:40:00,
2013-03-18 09:45:00,30.7,27.9,28.35,SSW,192,10.0,13.2,89,0.00,,,-99.99,FreeWX-Wi 1.01,2013-03-18 14:45:00,
2013-03-18 09:50:00,30.7,27.9,28.35,SSW,194,10.0,11.9,89,0.00,,,-99.99,FreeWX-Wi 1.01,2013-03-18 14:50:00,
2013-03-18 09:55:00,31.1,28.2,28.35,SSW,197,10.0,11.4,89,0.00,,,-99.99,FreeWX-Wi 1.01,2013-03-18 14:55:00,
2013-03-18 10:00:00,31.1,28.2,28.35,SSW,200,9.0,11.0,89,0.00,,,-99.99,FreeWX-Wi 1.01,2013-03-18 15:00:00,
2013-03-18 10:05:00,31.3,28.2,28.35,SSW,204,9.0,12.8,88,0.00,,,-99.99,FreeWX-Wi 1.01,2013-03-18 15:05:00,
2013-03-18 10:10:00,28.9,24.4,28.35,SW,217,9.0,13.2,83,0.00,,,-99.99,FreeWX-Wi 1.01,2013-03-18 15:10:00,
2013-03-18 10:16:00,27.9,24.3,28.35,SW,232,8.0,14.1,86,0.00,,,-99.99,FreeWX-Wi 1.01,2013-03-18 15:16:00,
2013-03-18 10:21:00,27.5,24.1,28.35,WSW,249,7.0,10.1,87,0.00,,,-99.99,FreeWX-Wi 1.01,2013-03-18 15:21:00,
2013-03-18 10:31:00,25.9,22.6,28.35,WNW,287,7.0,10.1,87,0.00,,,-99.99,FreeWX-Wi 1.01,2013-03-18 15:31:00,
2013-03-18 10:36:00,25.5,22.3,28.35,WNW,297,7.0,12.8,87,0.00,,,-99.99,FreeWX-Wi 1.01,2013-03-18 15:36:00,
2013-03-18 10:41:00,25.0,21.2,28.35,WNW,301,7.0,12.3,85,0.00,,,-99.99,FreeWX-Wi 1.01,2013-03-18 15:41:00,
2013-03-18 10:46:00,23.9,18.9,28.38,NW,304,8.0,15.0,81,0.00,,,-99.99,FreeWX-Wi 1.01,2013-03-18 15:46:00,
2013-03-18 10:52:00,23.7,19.4,28.38,NW,304,8.0,16.8,83,0.00,,,-99.99,FreeWX-Wi 1.01,2013-03-18 15:52:00,
2013-03-18 10:57:00,23.5,19.2,28.38,NW,304,8.0,12.8,83,0.00,,,-99.99,FreeWX-Wi 1.01,2013-03-18 15:57:00,
2013-03-18 11:02:00,23.0,18.7,28.38,WNW,298,8.0,8.7,83,0.00,,,-99.99,FreeWX-Wi 1.01,2013-03-18 16:02:00,
2013-03-18 11:07:00,22.5,16.7,28.38,WNW,297,8.0,13.2,78,0.00,,,-99.99,FreeWX-Wi 1.01,2013-03-18 16:07:00,
2013-03-18 11:12:00,22.3,15.3,28.38,WNW,293,8.0,12.8,74,0.00,,,-99.99,FreeWX-Wi 1.01,2013-03-18 16:12:00,
2013-03-18 11:17:00,22.3,15.6,28.38,WNW,292,7.0,10.5,75,0.00,,,-99.99,FreeWX-Wi 1.01,2013-03-18 16:17:00,
2013-03-18 11:22:00,21.9,15.3,28.38,WNW,291,7.0,12.8,75,0.00,,,-99.99,FreeWX-Wi 1.01,2013-03-18 16:22:00,
2013-03-18 11:27:00,21.7,14.7,28.38,WNW,289,7.0,14.1,74,0.00,,,-99.99,FreeWX-Wi 1.01,2013-03-18 16:27:00,
2013-03-18 11:32:00,21.2,13.6,28.38,WNW,290,8.0,13.2,72,0.00,,,-99.99,FreeWX-Wi 1.01,2013-03-18 16:32:00,
2013-03-18 11:37:00,20.8,12.9,28.38,WNW,290,8.0,13.2,71,0.00,,,-99.99,FreeWX-Wi 1.01,2013-03-18 16:37:00,
2013-03-18 11:42:00,20.8,12.6,28.38,WNW,291,8.0,13.2,70,0.00,,,-99.99,FreeWX-Wi 1.01,2013-03-18 16:42:00,
2013-03-18 11:47:00,20.8,12.4,28.38,WNW,291,8.0,12.8,69,0.00,,,-99.99,FreeWX-Wi 1.01,2013-03-18 16:47:00,
2013-03-18 11:53:00,21.2,12.0,28.38,WNW,292,8.0,10.5,67,0.00,,,-99.99,FreeWX-Wi 1.01,2013-03-18 16:53:00,
2013-03-18 11:58:00,21.2,11.7,28.38,WNW,291,8.0,13.6,66,0.00,,,-99.99,FreeWX-Wi 1.01,2013-03-18 16:58:00,
2013-03-18 12:03:00,21.0,12.7,28.41,WNW,290,6.0,8.7,70,0.00,,,-99.99,FreeWX-Wi 1.01,2013-03-18 17:03:00,
2013-03-18 12:08:00,21.0,11.8,28.41,WNW,288,6.0,10.5,67,0.00,,,-99.99,FreeWX-Wi 1.01,2013-03-18 17:08:00,
2013-03-18 12:13:00,21.4,13.1,28.41,WNW,287,6.0,13.2,70,0.00,,,-99.99,FreeWX-Wi 1.01,2013-03-18 17:13:00,
2013-03-18 12:18:00,21.0,10.8,28.38,WNW,286,6.0,14.5,64,0.00,,,-99.99,FreeWX-Wi 1.01,2013-03-18 17:18:00,
2013-03-18 12:23:00,21.2,12.6,28.38,WNW,285,6.0,12.3,69,0.00,,,-99.99,FreeWX-Wi 1.01,2013-03-18 17:23:00,
2013-03-18 12:28:00,20.8,11.7,28.38,WNW,287,6.0,11.0,67,0.00,,,-99.99,FreeWX-Wi 1.01,2013-03-18 17:28:00,
2013-03-18 12:33:00,20.5,11.3,28.38,WNW,291,8.0,13.2,67,0.00,,,-99.99,FreeWX-Wi 1.01,2013-03-18 17:33:00,
2013-03-18 12:38:00,20.3,9.3,28.38,WNW,296,8.0,13.6,62,0.00,,,-99.99,FreeWX-Wi 1.01,2013-03-18 17:38:00,
2013-03-18 12:44:00,20.3,9.0,28.38,WNW,298,9.0,13.2,61,0.00,,,-99.99,FreeWX-Wi 1.01,2013-03-18 17:44:00,
2013-03-18 12:49:00,20.5,8.8,28.41,WNW,299,9.0,13.2,60,0.00,,,-99.99,FreeWX-Wi 1.01,2013-03-18 17:49:00,
2013-03-18 12:54:00,20.3,9.7,28.41,WNW,302,10.0,13.6,63,0.00,,,-99.99,FreeWX-Wi 1.01,2013-03-18 17:54:00,
2013-03-18 12:59:00,20.7,11.8,28.41,WNW,300,10.0,11.9,68,0.00,,,-99.99,FreeWX-Wi 1.01,2013-03-18 17:59:00,
2013-03-18 13:04:00,20.3,9.7,28.41,WNW,301,10.0,15.4,63,0.00,,,-99.99,FreeWX-Wi 1.01,2013-03-18 18:04:00,
2013-03-18 13:09:00,20.7,10.4,28.41,WNW,300,10.0,13.6,64,0.00,,,-99.99,FreeWX-Wi 1.01,2013-03-18 18:09:00,
2013-03-18 13:14:00,20.5,10.6,28.41,WNW,300,10.0,14.5,65,0.00,,,-99.99,FreeWX-Wi 1.01,2013-03-18 18:14:00,
2013-03-18 13:19:00,20.1,9.5,28.38,WNW,300,10.0,15.0,63,0.00,,,-99.99,FreeWX-Wi 1.01,2013-03-18 18:19:00,
2013-03-18 13:24:00,21.2,9.9,28.38,WNW,299,10.0,12.8,61,0.00,,,-99.99,FreeWX-Wi 1.01,2013-03-18 18:24:00,
2013-03-18 13:29:00,21.2,11.7,28.38,WNW,297,10.0,14.5,66,0.00,,,-99.99,FreeWX-Wi 1.01,2013-03-18 18:29:00,
2013-03-18 13:34:00,21.6,12.4,28.38,WNW,295,9.0,11.0,67,0.00,,,-99.99,FreeWX-Wi 1.01,2013-03-18 18:34:00,
2013-03-18 13:40:00,21.0,10.0,28.38,WNW,292,8.0,13.2,62,0.00,,,-99.99,FreeWX-Wi 1.01,2013-03-18 18:40:00,
2013-03-18 13:45:00,20.3,10.0,28.38,WNW,293,8.0,12.8,64,0.00,,,-99.99,FreeWX-Wi 1.01,2013-03-18 18:45:00,
2013-03-18 13:50:00,20.7,10.0,28.41,WNW,292,8.0,13.6,63,0.00,,,-99.99,FreeWX-Wi 1.01,2013-03-18 18:50:00,
2013-03-18 13:55:00,19.8,7.7,28.41,WNW,293,8.0,13.2,59,0.00,,,-99.99,FreeWX-Wi 1.01,2013-03-18 18:55:00,
2013-03-18 14:00:00,20.1,9.5,28.41,WNW,292,8.0,12.8,63,0.00,,,-99.99,FreeWX-Wi 1.01,2013-03-18 19:00:00,
2013-03-18 14:05:00,19.9,9.7,28.41,WNW,292,9.0,14.5,64,0.00,,,-99.99,FreeWX-Wi 1.01,2013-03-18 19:05:00,
2013-03-18 14:10:00,21.0,11.5,28.41,WNW,293,9.0,12.3,66,0.00,,,-99.99,FreeWX-Wi 1.01,2013-03-18 19:10:00,
2013-03-18 14:15:00,20.3,10.4,28.41,WNW,292,8.0,12.8,65,0.00,,,-99.99,FreeWX-Wi 1.01,2013-03-18 19:15:00,
2013-03-18 14:20:00,19.6,10.4,28.41,WNW,291,8.0,12.8,67,0.00,,,-99.99,FreeWX-Wi 1.01,2013-03-18 19:20:00,
2013-03-18 14:25:00,19.9,9.0,28.41,WNW,294,8.0,13.2,62,0.00,,,-99.99,FreeWX-Wi 1.01,2013-03-18 19:25:00,
2013-03-18 14:30:00,19.8,9.3,28.41,WNW,298,8.0,12.8,63,0.00,,,-99.99,FreeWX-Wi 1.01,2013-03-18 19:30:00,
2013-03-18 14:35:00,20.3,11.5,28.41,WNW,299,8.0,13.2,68,0.00,,,-99.99,FreeWX-Wi 1.01,2013-03-18 19:35:00,
2013-03-18 14:40:00,19.0,9.9,28.41,WNW,299,8.0,12.3,67,0.00,,,-99.99,FreeWX-Wi 1.01,2013-03-18 19:40:00,
2013-03-18 14:45:00,19.0,8.6,28.41,WNW,298,8.0,12.8,63,0.00,,,-99.99,FreeWX-Wi 1.01,2013-03-18 19:45:00,
2013-03-18 14:51:00,19.0,11.5,28.41,WNW,296,8.0,13.2,72,0.00,,,-99.99,FreeWX-Wi 1.01,2013-03-18 19:51:00,
2013-03-18 14:56:00,18.1,10.4,28.41,WNW,296,8.0,15.0,71,0.00,,,-99.99,FreeWX-Wi 1.01,2013-03-18 19:56:00,
2013-03-18 15:06:00,19.0,10.2,28.41,WNW,293,8.0,13.2,68,0.00,,,-99.99,FreeWX-Wi 1.01,2013-03-18 20:06:00,
2013-03-18 15:11:00,18.5,11.7,28.41,WNW,294,9.0,13.2,74,0.00,,,-99.99,FreeWX-Wi 1.01,2013-03-18 20:11:00,
2013-03-18 15:16:00,18.5,9.3,28.41,WNW,292,8.0,12.3,67,0.00,,,-99.99,FreeWX-Wi 1.01,2013-03-18 20:16:00,
2013-03-18 15:21:00,18.1,8.8,28.41,WNW,290,8.0,10.5,66,0.00,,,-99.99,FreeWX-Wi 1.01,2013-03-18 20:21:00,
2013-03-18 15:27:00,18.1,8.1,28.41,WNW,286,7.0,11.9,64,0.00,,,-99.99,FreeWX-Wi 1.01,2013-03-18 20:27:00,
2013-03-18 15:32:00,18.0,8.6,28.41,WNW,284,6.0,12.3,66,0.00,,,-99.99,FreeWX-Wi 1.01,2013-03-18 20:32:00,
2013-03-18 15:37:00,18.0,9.1,28.41,WNW,284,6.0,15.4,68,0.00,,,-99.99,FreeWX-Wi 1.01,2013-03-18 20:37:00,
2013-03-18 15:42:00,17.8,7.7,28.41,WNW,285,7.0,13.2,64,0.00,,,-99.99,FreeWX-Wi 1.01,2013-03-18 20:42:00,
2013-03-18 15:47:00,17.8,8.8,28.41,WNW,284,7.0,11.4,67,0.00,,,-99.99,FreeWX-Wi 1.01,2013-03-18 20:47:00,
2013-03-18 15:52:00,18.0,9.1,28.41,WNW,285,7.0,15.0,68,0.00,,,-99.99,FreeWX-Wi 1.01,2013-03-18 20:52:00,
2013-03-18 15:57:00,18.3,9.1,28.41,WNW,287,8.0,13.2,67,0.00,,,-99.99,FreeWX-Wi 1.01,2013-03-18 20:57:00,
2013-03-18 16:02:00,18.5,9.7,28.41,WNW,288,8.0,13.6,68,0.00,,,-99.99,FreeWX-Wi 1.01,2013-03-18 21:02:00,
2013-03-18 16:07:00,19.2,10.8,28.41,WNW,291,8.0,17.4,69,0.00,,,-99.99,FreeWX-Wi 1.01,2013-03-18 21:07:00,
2013-03-18 16:12:00,17.8,10.4,28.41,WNW,295,8.0,15.4,72,0.00,,,-99.99,FreeWX-Wi 1.01,2013-03-18 21:12:00,
2013-03-18 16:17:00,18.0,11.7,28.41,WNW,296,9.0,13.2,76,0.00,,,-99.99,FreeWX-Wi 1.01,2013-03-18 21:17:00,
2013-03-18 16:22:00,18.3,12.4,28.41,WNW,296,9.0,15.4,77,0.00,,,-99.99,FreeWX-Wi 1.01,2013-03-18 21:22:00,
2013-03-18 16:28:00,18.0,11.7,28.41,WNW,295,10.0,13.2,76,0.00,,,-99.99,FreeWX-Wi 1.01,2013-03-18 21:28:00,
2013-03-18 16:33:00,18.0,10.8,28.44,WNW,293,10.0,13.2,73,0.00,,,-99.99,FreeWX-Wi 1.01,2013-03-18 21:33:00,
2013-03-18 16:38:00,17.1,10.8,28.44,WNW,292,10.0,13.2,76,0.00,,,-99.99,FreeWX-Wi 1.01,2013-03-18 21:38:00,
2013-03-18 16:43:00,17.1,11.5,28.44,WNW,294,10.0,14.5,78,0.00,,,-99.99,FreeWX-Wi 1.01,2013-03-18 21:43:00,
2013-03-18 16:53:00,17.1,11.7,28.44,WNW,300,10.0,12.8,79,0.00,,,-99.99,FreeWX-Wi 1.01,2013-03-18 21:53:00,
2013-03-18 16:58:00,16.9,12.0,28.44,WNW,299,10.0,13.2,81,0.00,,,-99.99,FreeWX-Wi 1.01,2013-03-18 21:58:00,
2013-03-18 17:03:00,17.1,12.2,28.44,WNW,298,10.0,13.2,81,0.00,,,-99.99,FreeWX-Wi 1.01,2013-03-18 22:03:00,
2013-03-18 17:08:00,17.2,12.7,28.44,WNW,296,9.0,11.0,82,0.00,,,-99.99,FreeWX-Wi 1.01,2013-03-18 22:08:00,
2013-03-18 17:14:00,17.1,12.2,28.44,WNW,294,9.0,15.9,81,0.00,,,-99.99,FreeWX-Wi 1.01,2013-03-18 22:14:00,
2013-03-18 17:19:00,17.2,12.4,28.44,WNW,290,8.0,11.0,81,0.00,,,-99.99,FreeWX-Wi 1.01,2013-03-18 22:19:00,
2013-03-18 17:24:00,17.1,12.2,28.44,WNW,290,8.0,9.6,81,0.00,,,-99.99,FreeWX-Wi 1.01,2013-03-18 22:24:00,
2013-03-18 17:29:00,16.5,11.7,28.44,WNW,290,7.0,13.2,81,0.00,,,-99.99,FreeWX-Wi 1.01,2013-03-18 22:29:00,
2013-03-18 17:34:00,16.7,11.8,28.44,WNW,288,6.0,8.3,81,0.00,,,-99.99,FreeWX-Wi 1.01,2013-03-18 22:34:00,
2013-03-18 17:39:00,15.8,10.9,28.44,WNW,286,7.0,17.4,81,0.00,,,-99.99,FreeWX-Wi 1.01,2013-03-18 22:39:00,
2013-03-18 17:44:00,16.0,10.9,28.44,WNW,286,7.0,13.6,80,0.00,,,-99.99,FreeWX-Wi 1.01,2013-03-18 22:44:00,
2013-03-18 17:49:00,15.8,10.8,28.47,WNW,287,7.0,12.3,80,0.00,,,-99.99,FreeWX-Wi 1.01,2013-03-18 22:49:00,
2013-03-18 17:54:00,16.2,11.1,28.47,WNW,289,7.0,10.5,80,0.00,,,-99.99,FreeWX-Wi 1.01,2013-03-18 22:54:00,
2013-03-18 17:59:00,16.5,11.5,28.47,WNW,290,8.0,11.0,80,0.00,,,-99.99,FreeWX-Wi 1.01,2013-03-18 22:59:00,
2013-03-18 18:04:00,16.2,11.1,28.44,WNW,290,7.0,8.7,80,0.00,,,-99.99,FreeWX-Wi 1.01,2013-03-18 23:04:00,
2013-03-18 18:09:00,16.3,11.5,28.44,WNW,289,6.0,12.3,81,0.00,,,-99.99,FreeWX-Wi 1.01,2013-03-18 23:09:00,
2013-03-18 18:14:00,16.5,11.7,28.44,WNW,288,6.0,9.6,81,0.00,,,-99.99,FreeWX-Wi 1.01,2013-03-18 23:14:00,
2013-03-18 18:19:00,16.0,10.9,28.47,WNW,286,5.0,8.3,80,0.00,,,-99.99,FreeWX-Wi 1.01,2013-03-18 23:19:00,
2013-03-18 18:24:00,16.0,10.9,28.47,WNW,286,5.0,11.0,80,0.00,,,-99.99,FreeWX-Wi 1.01,2013-03-18 23:24:00,
2013-03-18 18:30:00,15.8,10.8,28.47,WNW,282,5.0,11.0,80,0.00,,,-99.99,FreeWX-Wi 1.01,2013-03-18 23:30:00,
2013-03-18 18:35:00,15.4,10.4,28.47,WNW,282,5.0,7.6,80,0.00,,,-99.99,FreeWX-Wi 1.01,2013-03-18 23:35:00,
2013-03-18 18:40:00,15.6,10.6,28.47,West,280,5.0,7.6,80,0.00,,,-99.99,FreeWX-Wi 1.01,2013-03-18 23:40:00,
2013-03-18 18:45:00,15.4,10.4,28.47,West,279,5.0,10.1,80,0.00,,,-99.99,FreeWX-Wi 1.01,2013-03-18 23:45:00,
2013-03-18 18:50:00,15.4,10.4,28.47,West,279,6.0,14.1,80,0.00,,,-99.99,FreeWX-Wi 1.01,2013-03-18 23:50:00,
2013-03-18 18:55:00,14.9,9.9,28.47,West,280,6.0,15.4,80,0.00,,,-99.99,FreeWX-Wi 1.01,2013-03-18 23:55:00,
2013-03-18 19:00:00,14.7,9.5,28.47,West,281,6.0,12.8,79,0.00,,,-99.99,FreeWX-Wi 1.01,2013-03-19 00:00:00,
2013-03-18 19:05:00,14.4,9.1,28.47,WNW,283,7.0,12.8,79,0.00,,,-99.99,FreeWX-Wi 1.01,2013-03-19 00:05:00,
2013-03-18 19:10:00,14.4,9.1,28.47,WNW,284,7.0,15.0,79,0.00,,,-99.99,FreeWX-Wi 1.01,2013-03-19 00:10:00,
2013-03-18 19:15:00,14.4,9.1,28.47,WNW,284,7.0,17.0,79,0.00,,,-99.99,FreeWX-Wi 1.01,2013-03-19 00:15:00,
2013-03-18 19:20:00,14.2,9.0,28.47,WNW,285,6.0,13.2,79,0.00,,,-99.99,FreeWX-Wi 1.01,2013-03-19 00:20:00,
2013-03-18 19:25:00,14.0,8.8,28.47,WNW,285,6.0,12.8,79,0.00,,,-99.99,FreeWX-Wi 1.01,2013-03-19 00:25:00,
2013-03-18 19:30:00,14.0,8.8,28.47,WNW,286,6.0,11.0,79,0.00,,,-99.99,FreeWX-Wi 1.01,2013-03-19 00:30:00,
2013-03-18 19:35:00,14.0,8.8,28.50,WNW,286,7.0,17.0,79,0.00,,,-99.99,FreeWX-Wi 1.01,2013-03-19 00:35:00,
2013-03-18 19:41:00,14.0,8.8,28.50,WNW,288,7.0,13.6,79,0.00,,,-99.99,FreeWX-Wi 1.01,2013-03-19 00:41:00,
2013-03-18 19:46:00,14.4,9.1,28.50,WNW,288,7.0,8.7,79,0.00,,,-99.99,FreeWX-Wi 1.01,2013-03-19 00:46:00,
2013-03-18 19:56:00,14.2,9.0,28.50,WNW,286,6.0,10.1,79,0.00,,,-99.99,FreeWX-Wi 1.01,2013-03-19 00:56:00,
2013-03-18 20:07:00,14.2,9.0,28.50,WNW,286,6.0,11.0,79,0.00,,,-99.99,FreeWX-Wi 1.01,2013-03-19 01:07:00,
2013-03-18 20:12:00,14.4,9.1,28.50,WNW,286,6.0,12.8,79,0.00,,,-99.99,FreeWX-Wi 1.01,2013-03-19 01:12:00,
2013-03-18 20:22:00,14.0,8.8,28.50,WNW,291,7.0,13.6,79,0.00,,,-99.99,FreeWX-Wi 1.01,2013-03-19 01:22:00,
2013-03-18 20:27:00,13.8,8.6,28.50,WNW,291,7.0,11.0,79,0.00,,,-99.99,FreeWX-Wi 1.01,2013-03-19 01:27:00,
2013-03-18 20:32:00,13.8,8.6,28.50,WNW,289,7.0,11.9,79,0.00,,,-99.99,FreeWX-Wi 1.01,2013-03-19 01:32:00,
2013-03-18 20:37:00,13.6,8.4,28.50,WNW,288,7.0,15.0,79,0.00,,,-99.99,FreeWX-Wi 1.01,2013-03-19 01:37:00,
2013-03-18 20:42:00,13.3,8.1,28.50,WNW,288,8.0,17.0,79,0.00,,,-99.99,FreeWX-Wi 1.01,2013-03-19 01:42:00,
2013-03-18 20:47:00,13.1,7.9,28.50,WNW,288,8.0,14.5,79,0.00,,,-99.99,FreeWX-Wi 1.01,2013-03-19 01:47:00,
2013-03-18 20:53:00,12.9,7.7,28.50,WNW,289,9.0,15.0,79,0.00,,,-99.99,FreeWX-Wi 1.01,2013-03-19 01:53:00,
2013-03-18 20:58:00,13.1,7.9,28.50,WNW,294,10.0,15.0,79,0.00,,,-99.99,FreeWX-Wi 1.01,2013-03-19 01:58:00,
2013-03-18 21:03:00,13.3,8.1,28.52,WNW,296,10.0,16.8,79,0.00,,,-99.99,FreeWX-Wi 1.01,2013-03-19 02:03:00,
2013-03-18 21:08:00,13.5,8.2,28.52,WNW,296,10.0,13.2,79,0.00,,,-99.99,FreeWX-Wi 1.01,2013-03-19 02:08:00,
2013-03-18 21:13:00,13.1,7.9,28.52,WNW,295,10.0,17.4,79,0.00,,,-99.99,FreeWX-Wi 1.01,2013-03-19 02:13:00,
2013-03-18 21:18:00,12.7,7.5,28.52,WNW,294,10.0,21.0,79,0.00,,,-99.99,FreeWX-Wi 1.01,2013-03-19 02:18:00,
2013-03-18 21:23:00,12.7,7.5,28.52,WNW,292,10.0,16.8,79,0.00,,,-99.99,FreeWX-Wi 1.01,2013-03-19 02:23:00,
2013-03-18 21:28:00,12.7,7.5,28.52,WNW,291,10.0,15.0,79,0.00,,,-99.99,FreeWX-Wi 1.01,2013-03-19 02:28:00,
2013-03-18 21:33:00,12.7,7.5,28.52,WNW,290,11.0,17.4,79,0.00,,,-99.99,FreeWX-Wi 1.01,2013-03-19 02:33:00,
2013-03-18 21:38:00,12.9,7.7,28.52,WNW,291,11.0,17.4,79,0.00,,,-99.99,FreeWX-Wi 1.01,2013-03-19 02:38:00,
2013-03-18 21:43:00,12.7,7.5,28.52,WNW,293,11.0,15.4,79,0.00,,,-99.99,FreeWX-Wi 1.01,2013-03-19 02:43:00,
2013-03-18 21:48:00,12.6,7.3,28.52,WNW,295,11.0,15.4,79,0.00,,,-99.99,FreeWX-Wi 1.01,2013-03-19 02:48:00,
2013-03-18 21:54:00,12.6,7.3,28.52,WNW,295,11.0,17.4,79,0.00,,,-99.99,FreeWX-Wi 1.01,2013-03-19 02:54:00,
2013-03-18 21:59:00,12.6,7.3,28.52,WNW,296,11.0,16.3,79,0.00,,,-99.99,FreeWX-Wi 1.01,2013-03-19 02:59:00,
2013-03-18 22:04:00,12.6,7.3,28.52,WNW,296,11.0,17.0,79,0.00,,,-99.99,FreeWX-Wi 1.01,2013-03-19 03:04:00,
2013-03-18 22:09:00,12.6,7.3,28.52,WNW,297,11.0,15.9,79,0.00,,,-99.99,FreeWX-Wi 1.01,2013-03-19 03:09:00,
2013-03-18 22:14:00,12.7,7.5,28.52,WNW,297,11.0,15.0,79,0.00,,,-99.99,FreeWX-Wi 1.01,2013-03-19 03:14:00,
2013-03-18 22:19:00,12.9,7.7,28.52,WNW,296,10.0,13.2,79,0.00,,,-99.99,FreeWX-Wi 1.01,2013-03-19 03:19:00,
2013-03-18 22:24:00,12.7,7.5,28.52,WNW,293,10.0,17.4,79,0.00,,,-99.99,FreeWX-Wi 1.01,2013-03-19 03:24:00,
2013-03-18 22:29:00,12.6,7.3,28.52,WNW,295,10.0,16.8,79,0.00,,,-99.99,FreeWX-Wi 1.01,2013-03-19 03:29:00,
2013-03-18 22:34:00,12.4,7.2,28.52,WNW,295,10.0,17.0,79,0.00,,,-99.99,FreeWX-Wi 1.01,2013-03-19 03:34:00,
2013-03-18 22:39:00,12.6,7.3,28.52,WNW,295,10.0,15.4,79,0.00,,,-99.99,FreeWX-Wi 1.01,2013-03-19 03:39:00,
2013-03-18 22:45:00,12.6,7.3,28.52,WNW,292,9.0,15.0,79,0.00,,,-99.99,FreeWX-Wi 1.01,2013-03-19 03:45:00,
2013-03-18 22:50:00,12.4,7.2,28.52,WNW,295,10.0,16.3,79,0.00,,,-99.99,FreeWX-Wi 1.01,2013-03-19 03:50:00,
2013-03-18 22:55:00,12.4,7.2,28.52,WNW,293,9.0,13.6,79,0.00,,,-99.99,FreeWX-Wi 1.01,2013-03-19 03:55:00,
2013-03-18 23:00:00,12.6,7.3,28.52,WNW,291,9.0,17.0,79,0.00,,,-99.99,FreeWX-Wi 1.01,2013-03-19 04:00:00,
2013-03-18 23:05:00,12.4,7.2,28.52,WNW,289,8.0,11.0,79,0.00,,,-99.99,FreeWX-Wi 1.01,2013-03-19 04:05:00,
2013-03-18 23:10:00,12.2,7.0,28.52,WNW,289,8.0,14.1,79,0.00,,,-99.99,FreeWX-Wi 1.01,2013-03-19 04:10:00,
2013-03-18 23:15:00,11.7,6.4,28.52,WNW,289,8.0,15.4,79,0.00,,,-99.99,FreeWX-Wi 1.01,2013-03-19 04:15:00,
2013-03-18 23:20:00,11.7,6.4,28.50,WNW,292,9.0,15.0,79,0.00,,,-99.99,FreeWX-Wi 1.01,2013-03-19 04:20:00,
2013-03-18 23:25:00,11.8,6.6,28.50,WNW,292,9.0,15.4,79,0.00,,,-99.99,FreeWX-Wi 1.01,2013-03-19 04:25:00,
2013-03-18 23:31:00,11.8,6.6,28.50,WNW,293,10.0,13.2,79,0.00,,,-99.99,FreeWX-Wi 1.01,2013-03-19 04:31:00,
2013-03-18 23:36:00,11.8,6.6,28.50,WNW,293,10.0,17.9,79,0.00,,,-99.99,FreeWX-Wi 1.01,2013-03-19 04:36:00,
2013-03-18 23:41:00,11.5,6.3,28.50,WNW,296,10.0,15.4,79,0.00,,,-99.99,FreeWX-Wi 1.01,2013-03-19 04:41:00,
2013-03-18 23:46:00,11.5,6.3,28.50,WNW,294,11.0,16.3,79,0.00,,,-99.99,FreeWX-Wi 1.01,2013-03-19 04:46:00,
2013-03-18 23:51:00,11.3,6.1,28.50,WNW,295,11.0,15.9,79,0.00,,,-99.99,FreeWX-Wi 1.01,2013-03-19 04:51:00,
2013-03-18 23:56:00,11.3,6.1,28.50,WNW,296,11.0,16.8,79,0.00,,,-99.99,FreeWX-Wi 1.01,2013-03-19 04:56:00,